createdAt,value
2019-04-11T00:02:14.545Z,99.90
2019-04-11T00:04:43.614Z,99.90
2019-04-11T00:07:12.607Z,99.90
2019-04-11T00:09:42.820Z,99.90
2019-04-11T00:12:12.439Z,99.90
2019-04-11T00:14:42.155Z,99.90
2019-04-11T00:17:11.943Z,99.90
2019-04-11T00:19:40.953Z,99.90
2019-04-11T00:22:11.023Z,99.90
2019-04-11T00:24:40.119Z,99.90
2019-04-11T00:27:09.099Z,99.90
2019-04-11T00:29:38.646Z,99.90
2019-04-11T00:32:09.237Z,99.90
2019-04-11T00:34:39.343Z,99.90
2019-04-11T00:37:09.177Z,99.90
2019-04-11T00:39:38.232Z,99.90
2019-04-11T00:42:10.340Z,99.90
2019-04-11T00:44:39.360Z,99.90
2019-04-11T00:47:08.905Z,99.90
2019-04-11T00:49:38.762Z,99.90
2019-04-11T00:52:08.664Z,99.90
2019-04-11T00:54:38.588Z,99.90
2019-04-11T00:57:08.519Z,99.90
2019-04-11T00:59:38.440Z,99.90
2019-04-11T01:02:07.837Z,99.90
2019-04-11T01:04:37.110Z,99.90
2019-04-11T01:07:06.879Z,99.90
2019-04-11T01:09:36.755Z,99.90
2019-04-11T01:12:05.874Z,99.90
2019-04-11T01:14:37.111Z,99.90
2019-04-11T01:17:07.491Z,99.90
2019-04-11T01:19:36.175Z,99.90
2019-04-11T01:22:05.719Z,99.90
2019-04-11T01:24:35.607Z,99.90
2019-04-11T01:27:05.595Z,99.90
2019-04-11T01:29:35.658Z,99.90
2019-04-11T01:32:06.994Z,99.90
2019-04-11T01:34:37.008Z,99.90
2019-04-11T01:37:07.205Z,99.90
2019-04-11T01:39:59.498Z,99.90
2019-04-11T01:42:29.107Z,99.90
2019-04-11T01:44:58.139Z,99.90
2019-04-11T01:47:49.045Z,99.90
2019-04-11T01:50:23.026Z,99.90
2019-04-11T01:52:52.970Z,99.90
2019-04-11T01:55:22.376Z,99.90
2019-04-11T01:57:52.277Z,99.90
2019-04-11T02:00:48.745Z,99.90
2019-04-11T02:03:21.202Z,99.90
2019-04-11T02:05:51.602Z,99.90
2019-04-11T02:08:20.677Z,99.90
2019-04-11T02:10:50.810Z,99.90
2019-04-11T02:13:19.781Z,99.90
2019-04-11T02:15:48.812Z,99.90
2019-04-11T02:18:17.723Z,99.90
2019-04-11T02:20:47.303Z,99.90
2019-04-11T02:23:21.242Z,99.90
2019-04-11T02:26:00.884Z,99.90
2019-04-11T02:28:30.927Z,99.90
2019-04-11T02:31:02.455Z,99.90
2019-04-11T02:33:32.953Z,99.90
2019-04-11T02:36:03.130Z,99.90
2019-04-11T02:38:33.311Z,99.90
2019-04-11T02:41:04.141Z,99.90
2019-04-11T02:43:34.774Z,99.90
2019-04-11T02:46:13.012Z,99.90
2019-04-11T02:48:36.268Z,99.90
2019-04-11T02:51:07.572Z,99.90
2019-04-11T02:53:38.775Z,99.90
2019-04-11T02:56:09.281Z,99.90
2019-04-11T02:58:39.739Z,99.90
2019-04-11T03:01:10.463Z,99.90
2019-04-11T03:03:41.705Z,99.90
2019-04-11T03:06:11.130Z,99.90
2019-04-11T03:08:41.144Z,99.90
2019-04-11T03:11:11.168Z,99.90
2019-04-11T03:13:41.738Z,99.90
2019-04-11T03:16:27.822Z,99.90
2019-04-11T03:19:00.121Z,99.90
2019-04-11T03:21:16.446Z,99.90
2019-04-11T03:23:44.034Z,99.90
2019-04-11T03:26:14.104Z,99.90
2019-04-11T03:28:49.012Z,99.90
2019-04-11T03:31:50.573Z,99.90
2019-04-11T03:39:11.605Z,99.90
2019-04-11T03:41:34.853Z,99.90
2019-04-11T03:43:58.010Z,99.90
2019-04-11T03:46:32.673Z,99.90
2019-04-11T03:49:00.304Z,99.90
2019-04-11T03:51:22.603Z,99.90
2019-04-11T03:53:53.406Z,99.90
2019-04-11T03:56:22.580Z,99.90
2019-04-11T03:58:53.455Z,99.90
2019-04-11T04:01:24.588Z,99.90
2019-04-11T04:03:54.217Z,99.90
2019-04-11T04:06:25.532Z,99.90
2019-04-11T04:08:55.595Z,99.90
2019-04-11T04:11:27.451Z,99.90
2019-04-11T04:14:19.838Z,99.90
2019-04-11T04:17:17.146Z,99.90
2019-04-11T04:19:56.733Z,99.90
2019-04-11T04:22:31.650Z,99.90
2019-04-11T04:25:03.761Z,99.90
2019-04-11T04:27:33.055Z,99.90
2019-04-11T04:30:05.332Z,99.90
2019-04-11T04:32:34.049Z,99.90
2019-04-11T04:35:04.989Z,99.90
2019-04-11T04:37:34.616Z,99.90
2019-04-11T04:40:23.943Z,99.90
2019-04-11T04:42:41.636Z,99.90
2019-04-11T04:45:07.916Z,99.90
2019-04-11T04:47:46.453Z,99.90
2019-04-11T04:50:08.815Z,99.90
2019-04-11T04:52:38.293Z,99.90
2019-04-11T04:55:08.526Z,99.90
2019-04-11T04:57:37.878Z,99.90
2019-04-11T05:00:07.277Z,99.90
2019-04-11T05:02:37.326Z,99.90
2019-04-11T05:05:06.670Z,99.90
2019-04-11T05:07:40.143Z,99.90
2019-04-11T05:10:08.897Z,99.90
2019-04-11T05:12:38.823Z,99.90
2019-04-11T05:15:08.025Z,99.90
2019-04-11T05:17:38.514Z,99.90
2019-04-11T05:20:09.166Z,99.90
2019-04-11T05:22:39.326Z,99.90
2019-04-11T05:25:08.491Z,99.90
2019-04-11T05:27:37.859Z,99.90
2019-04-11T05:30:07.984Z,99.90
2019-04-11T05:32:39.639Z,99.90
2019-04-11T05:35:08.950Z,99.90
2019-04-11T05:37:39.662Z,99.90
2019-04-11T05:40:09.314Z,99.90
2019-04-11T05:42:39.564Z,99.90
2019-04-11T05:45:15.677Z,99.90
2019-04-11T05:47:39.424Z,99.90
2019-04-11T05:50:25.024Z,99.90
2019-04-11T05:52:56.638Z,99.90
2019-04-11T05:55:27.926Z,99.90
2019-04-11T05:57:58.876Z,99.90
2019-04-11T06:00:46.508Z,99.90
2019-04-11T06:03:15.701Z,99.90
2019-04-11T06:06:03.221Z,99.90
2019-04-11T06:08:33.511Z,99.90
2019-04-11T06:11:33.509Z,99.90
2019-04-11T06:14:17.334Z,99.90
2019-04-11T06:16:52.591Z,99.90
2019-04-11T06:19:33.378Z,99.90
2019-04-11T06:22:08.695Z,99.90
2019-04-11T06:24:56.522Z,99.90
2019-04-11T06:27:43.308Z,99.90
2019-04-11T06:30:24.407Z,99.90
2019-04-11T06:33:18.556Z,99.90
2019-04-11T06:36:16.079Z,99.90
2019-04-11T06:38:52.437Z,99.90
2019-04-11T06:41:30.657Z,99.90
2019-04-11T06:44:06.883Z,99.90
2019-04-11T06:47:06.607Z,99.20
2019-04-11T06:50:00.545Z,98.00
2019-04-11T06:52:29.578Z,96.90
2019-04-11T06:55:26.808Z,96.40
2019-04-11T06:58:02.577Z,94.40
2019-04-11T07:00:31.819Z,94.50
2019-04-11T07:03:03.430Z,94.90
2019-04-11T07:05:35.112Z,94.90
2019-04-11T07:08:05.502Z,94.80
2019-04-11T07:10:39.299Z,93.30
2019-04-11T07:13:16.554Z,93.60
2019-04-11T07:15:48.533Z,93.80
2019-04-11T07:18:35.690Z,93.20
2019-04-11T07:21:06.911Z,93.20
2019-04-11T07:23:53.619Z,92.50
2019-04-11T07:26:37.428Z,92.20
2019-04-11T07:29:25.767Z,92.20
2019-04-11T07:32:16.150Z,93.60
2019-04-11T07:35:08.591Z,92.50
2019-04-11T07:37:42.343Z,92.40
2019-04-11T07:40:33.152Z,93.00
2019-04-11T07:43:19.051Z,93.20
2019-04-11T07:46:27.180Z,95.30
2019-04-11T07:48:59.421Z,93.20
2019-04-11T07:51:29.787Z,93.20
2019-04-11T07:54:00.377Z,92.20
2019-04-11T07:56:48.608Z,91.80
2019-04-11T07:59:27.173Z,90.30
2019-04-11T08:02:13.708Z,90.80
2019-04-11T08:05:21.965Z,90.30
2019-04-11T08:08:10.983Z,87.80
2019-04-11T08:10:45.723Z,87.90
2019-04-11T08:13:20.695Z,86.10
2019-04-11T08:16:12.583Z,87.80
2019-04-11T08:18:49.407Z,87.00
2019-04-11T08:21:37.155Z,85.60
2019-04-11T08:24:08.554Z,87.00
2019-04-11T08:26:56.586Z,85.10
2019-04-11T08:29:27.064Z,85.20
2019-04-11T08:32:30.313Z,83.70
2019-04-11T08:35:17.772Z,84.70
2019-04-11T08:38:06.384Z,83.40
2019-04-11T08:40:40.835Z,83.40
2019-04-11T08:43:17.140Z,81.80
2019-04-11T08:45:50.661Z,81.30
2019-04-11T08:48:19.664Z,82.80
2019-04-11T08:50:52.776Z,83.60
2019-04-11T08:53:38.339Z,79.80
2019-04-11T08:56:07.404Z,81.70
2019-04-11T08:58:51.044Z,79.10
2019-04-11T09:01:20.514Z,80.30
2019-04-11T09:04:10.448Z,78.90
2019-04-11T09:06:38.986Z,79.30
2019-04-11T09:09:37.991Z,78.60
2019-04-11T09:12:10.175Z,79.10
2019-04-11T09:14:56.844Z,79.00
2019-04-11T09:17:30.219Z,79.20
2019-04-11T09:20:17.013Z,77.10
2019-04-11T09:22:53.333Z,73.60
2019-04-11T09:25:40.209Z,75.90
2019-04-11T09:28:21.643Z,73.80
2019-04-11T09:31:16.948Z,78.00
2019-04-11T09:34:03.745Z,75.80
2019-04-11T09:36:45.052Z,74.90
2019-04-11T09:39:39.329Z,74.20
2019-04-11T09:42:26.166Z,76.10
2019-04-11T09:45:14.165Z,79.10
2019-04-11T09:48:22.255Z,80.80
2019-04-11T09:51:15.684Z,83.50
2019-04-11T09:53:47.219Z,81.40
2019-04-11T09:56:33.601Z,79.90
2019-04-11T09:59:08.657Z,83.50
2019-04-11T10:01:56.143Z,78.90
2019-04-11T10:04:25.626Z,78.30
2019-04-11T10:07:19.641Z,80.10
2019-04-11T10:10:10.800Z,75.40
2019-04-11T10:12:57.407Z,73.90
2019-04-11T10:15:47.314Z,73.30
2019-04-11T10:18:38.223Z,75.70
2019-04-11T10:21:04.865Z,77.80
2019-04-11T10:23:49.391Z,75.50
2019-04-11T10:26:18.391Z,70.90
2019-04-11T10:29:12.235Z,71.00
2019-04-11T10:31:44.321Z,76.60
2019-04-11T10:34:30.772Z,77.20
2019-04-11T10:37:07.682Z,75.60
2019-04-11T10:39:59.813Z,76.30
2019-04-11T10:42:30.697Z,76.40
2019-04-11T10:45:24.864Z,74.10
2019-04-11T10:47:59.701Z,69.20
2019-04-11T10:50:46.549Z,75.90
2019-04-11T10:53:16.695Z,71.40
2019-04-11T10:56:08.559Z,75.90
2019-04-11T10:58:43.147Z,74.60
2019-04-11T11:01:46.473Z,74.40
2019-04-11T11:04:18.202Z,71.30
2019-04-11T11:06:49.181Z,73.70
2019-04-11T11:09:26.113Z,72.50
2019-04-11T11:12:23.282Z,72.70
2019-04-11T11:15:09.519Z,73.60
2019-04-11T11:18:35.141Z,74.20
2019-04-11T11:20:49.955Z,72.80
2019-04-11T11:23:49.344Z,70.10
2019-04-11T11:26:29.566Z,75.90
2019-04-11T11:29:17.207Z,75.10
2019-04-11T11:31:57.993Z,72.70
2019-04-11T11:34:52.310Z,74.10
2019-04-11T11:37:45.210Z,75.60
2019-04-11T11:40:38.295Z,73.00
2019-04-11T11:43:10.866Z,75.20
2019-04-11T11:45:54.864Z,74.40
2019-04-11T11:48:46.305Z,78.30
2019-04-11T11:51:37.469Z,76.80
2019-04-11T11:54:13.517Z,74.40
2019-04-11T11:56:44.353Z,71.00
2019-04-11T11:59:34.487Z,73.40
2019-04-11T12:02:06.652Z,72.00
2019-04-11T12:04:46.520Z,72.60
2019-04-11T12:07:16.892Z,74.60
2019-04-11T12:10:04.847Z,69.90
2019-04-11T12:12:39.996Z,71.60
2019-04-11T12:15:28.035Z,71.80
2019-04-11T12:18:18.909Z,71.10
2019-04-11T12:21:08.066Z,71.60
2019-04-11T12:24:02.178Z,69.60
2019-04-11T12:26:30.393Z,73.40
2019-04-11T12:29:18.929Z,73.70
2019-04-11T12:31:52.313Z,71.30
2019-04-11T12:34:44.805Z,73.20
2019-04-11T12:37:21.130Z,74.70
2019-04-11T12:40:09.667Z,71.90
2019-04-11T12:42:39.919Z,74.10
2019-04-11T12:45:39.880Z,70.40
2019-04-11T12:48:11.906Z,71.30
2019-04-11T12:51:01.698Z,71.40
2019-04-11T12:53:30.714Z,69.00
2019-04-11T12:56:18.259Z,72.10
2019-04-11T12:58:49.619Z,73.00
2019-04-11T13:01:52.499Z,67.10
2019-04-11T13:04:44.288Z,66.20
2019-04-11T13:07:33.460Z,69.00
2019-04-11T13:10:35.525Z,69.20
2019-04-11T13:13:20.022Z,68.30
2019-04-11T13:16:11.419Z,68.00
2019-04-11T13:18:41.148Z,63.50
2019-04-11T13:21:22.940Z,61.10
2019-04-11T13:24:11.001Z,63.80
2019-04-11T13:27:07.880Z,64.90
2019-04-11T13:30:04.867Z,64.70
2019-04-11T13:32:53.666Z,65.70
2019-04-11T13:35:44.743Z,65.00
2019-04-11T13:38:25.917Z,67.70
2019-04-11T13:41:20.368Z,63.90
2019-04-11T13:44:14.440Z,63.50
2019-04-11T13:46:55.842Z,60.90
2019-04-11T13:49:37.524Z,63.60
2019-04-11T13:52:28.550Z,66.10
2019-04-11T13:55:08.626Z,59.70
2019-04-11T13:57:56.704Z,61.70
2019-04-11T14:00:49.033Z,60.90
2019-04-11T14:03:49.192Z,64.50
2019-04-11T14:06:26.667Z,60.10
2019-04-11T14:09:06.456Z,59.40
2019-04-11T14:11:37.049Z,61.70
2019-04-11T14:14:35.734Z,60.00
2019-04-11T14:17:15.425Z,60.50
2019-04-11T14:20:02.122Z,57.70
2019-04-11T14:22:37.710Z,55.30
2019-04-11T14:25:25.756Z,58.60
2019-04-11T14:27:57.137Z,55.90
2019-04-11T14:30:51.655Z,57.20
2019-04-11T14:33:18.671Z,58.40
2019-04-11T14:36:33.258Z,56.90
2019-04-11T14:38:55.822Z,56.60
2019-04-11T14:41:43.870Z,56.80
2019-04-11T14:44:15.778Z,57.10
2019-04-11T14:47:01.149Z,56.10
2019-04-11T14:49:30.226Z,56.70
2019-04-11T14:52:33.475Z,56.30
2019-04-11T14:55:03.544Z,55.60
2019-04-11T14:57:54.499Z,57.00
2019-04-11T15:00:42.626Z,57.50
2019-04-11T15:03:34.141Z,57.60
2019-04-11T15:06:18.107Z,60.60
2019-04-11T15:09:18.119Z,58.00
2019-04-11T15:12:06.129Z,57.80
2019-04-11T15:14:52.900Z,58.80
2019-04-11T15:17:27.757Z,56.90
2019-04-11T15:20:14.313Z,57.10
2019-04-11T15:22:53.095Z,56.50
2019-04-11T15:25:45.000Z,56.60
2019-04-11T15:28:21.303Z,56.80
2019-04-11T15:30:51.815Z,57.40
2019-04-11T15:33:51.684Z,57.40
2019-04-11T15:36:21.100Z,57.30
2019-04-11T15:39:07.532Z,58.10
2019-04-11T15:41:37.437Z,57.70
2019-04-11T15:44:34.531Z,58.00
2019-04-11T15:47:04.881Z,56.40
2019-04-11T15:49:55.583Z,55.40
2019-04-11T15:52:24.558Z,55.40
2019-04-11T15:55:18.334Z,55.80
2019-04-11T15:57:53.842Z,55.20
2019-04-11T16:00:53.881Z,56.40
2019-04-11T16:03:24.799Z,56.00
2019-04-11T16:06:11.417Z,56.60
2019-04-11T16:08:43.699Z,57.60
2019-04-11T16:11:30.458Z,57.80
2019-04-11T16:14:19.716Z,56.90
2019-04-11T16:16:57.801Z,56.80
2019-04-11T16:20:04.934Z,56.30
2019-04-11T16:23:10.827Z,57.70
2019-04-11T16:25:41.742Z,58.60
2019-04-11T16:28:26.456Z,57.60
2019-04-11T16:30:59.444Z,57.00
2019-04-11T16:33:46.888Z,58.00
2019-04-11T16:36:21.820Z,58.00
2019-04-11T16:39:07.161Z,58.00
2019-04-11T16:41:54.470Z,58.20
2019-04-11T16:44:42.508Z,58.60
2019-04-11T16:47:33.259Z,58.40
2019-04-11T16:50:02.082Z,57.90
2019-04-11T16:52:31.055Z,59.00
2019-04-11T16:55:00.026Z,58.40
2019-04-11T16:57:29.996Z,58.60
2019-04-11T16:59:59.202Z,58.00
2019-04-11T17:02:29.124Z,58.40
2019-04-11T17:04:58.060Z,58.90
2019-04-11T17:07:45.248Z,59.20
2019-04-11T17:10:15.078Z,58.50
2019-04-11T17:12:44.297Z,58.70
2019-04-11T17:15:13.517Z,60.10
2019-04-11T17:17:42.690Z,63.30
2019-04-11T17:20:23.023Z,64.60
2019-04-11T17:22:52.123Z,66.40
2019-04-11T17:25:21.162Z,65.60
2019-04-11T17:27:50.698Z,65.70
2019-04-11T17:30:24.526Z,67.50
2019-04-11T17:32:55.374Z,67.60
2019-04-11T17:35:22.773Z,67.40
2019-04-11T17:37:51.741Z,68.30
2019-04-11T17:40:20.909Z,68.90
2019-04-11T17:42:49.943Z,69.70
2019-04-11T17:45:18.940Z,70.20
2019-04-11T17:47:47.944Z,71.50
2019-04-11T17:50:16.905Z,71.40
2019-04-11T17:52:45.938Z,71.60
2019-04-11T17:55:15.190Z,71.40
2019-04-11T17:57:44.270Z,71.90
2019-04-11T18:00:20.106Z,73.60
2019-04-11T18:02:49.509Z,75.00
2019-04-11T18:05:18.645Z,75.90
2019-04-11T18:07:49.879Z,75.10
2019-04-11T18:10:18.497Z,75.20
2019-04-11T18:12:47.512Z,75.30
2019-04-11T18:15:16.424Z,75.30
2019-04-11T18:17:45.408Z,76.10
2019-04-11T18:20:14.485Z,76.90
2019-04-11T18:22:43.752Z,76.50
2019-04-11T18:25:14.461Z,76.80
2019-04-11T18:27:43.936Z,77.00
2019-04-11T18:30:13.002Z,77.30
2019-04-11T18:32:42.474Z,77.90
2019-04-11T18:35:11.506Z,78.40
2019-04-11T18:37:40.652Z,79.00
2019-04-11T18:40:10.462Z,79.40
2019-04-11T18:42:39.626Z,80.20
2019-04-11T18:45:08.780Z,80.90
2019-04-11T18:47:37.758Z,81.50
2019-04-11T18:50:07.083Z,83.00
2019-04-11T18:52:36.210Z,83.70
2019-04-11T18:55:06.434Z,83.80
2019-04-11T18:57:35.520Z,83.80
2019-04-11T19:00:07.879Z,83.50
2019-04-11T19:02:37.928Z,84.20
2019-04-11T19:05:10.943Z,84.90
2019-04-11T19:07:42.830Z,85.60
2019-04-11T19:10:14.559Z,86.40
2019-04-11T19:12:44.030Z,87.30
2019-04-11T19:15:16.738Z,88.10
2019-04-11T19:17:46.858Z,89.10
2019-04-11T19:20:18.809Z,89.40
2019-04-11T19:22:47.674Z,90.00
2019-04-11T19:25:16.712Z,90.20
2019-04-11T19:27:50.532Z,90.30
2019-04-11T19:30:16.572Z,90.80
2019-04-11T19:32:47.722Z,91.00
2019-04-11T19:35:16.899Z,91.40
2019-04-11T19:37:45.940Z,92.10
2019-04-11T19:40:16.526Z,93.70
2019-04-11T19:42:48.901Z,92.80
2019-04-11T19:45:16.883Z,93.00
2019-04-11T19:47:51.447Z,93.80
2019-04-11T19:50:20.406Z,94.30
2019-04-11T19:52:49.450Z,94.60
2019-04-11T19:55:37.413Z,95.20
2019-04-11T19:58:06.553Z,95.40
2019-04-11T20:00:36.573Z,95.90
2019-04-11T20:03:08.339Z,96.30
2019-04-11T20:05:36.436Z,96.40
2019-04-11T20:08:05.770Z,96.60
2019-04-11T20:10:34.980Z,96.50
2019-04-11T20:13:04.466Z,97.10
2019-04-11T20:15:37.312Z,97.00
2019-04-11T20:18:04.404Z,97.10
2019-04-11T20:20:36.837Z,97.60
2019-04-11T20:23:04.454Z,97.70
2019-04-11T20:25:33.493Z,99.00
2019-04-11T20:28:02.611Z,99.20
2019-04-11T20:30:32.838Z,99.60
2019-04-11T20:33:03.179Z,99.90
2019-04-11T20:35:32.805Z,99.60
2019-04-11T20:38:01.879Z,99.10
2019-04-11T20:40:31.287Z,99.10
2019-04-11T20:43:00.564Z,99.90
2019-04-11T20:45:31.859Z,99.90
2019-04-11T20:48:00.964Z,99.50
2019-04-11T20:50:30.126Z,99.90
2019-04-11T20:53:12.037Z,99.90
2019-04-11T20:55:31.134Z,99.90
2019-04-11T20:58:00.899Z,99.90
2019-04-11T21:00:29.848Z,99.90
2019-04-11T21:02:59.070Z,99.90
2019-04-11T21:05:30.588Z,99.90
2019-04-11T21:08:02.617Z,99.90
2019-04-11T21:10:31.948Z,99.90
2019-04-11T21:13:00.407Z,99.90
2019-04-11T21:15:29.373Z,99.90
2019-04-11T21:17:58.354Z,99.90
2019-04-11T21:20:27.335Z,99.90
2019-04-11T21:22:56.811Z,99.90
2019-04-11T21:25:26.150Z,99.90
2019-04-11T21:27:59.063Z,99.90
2019-04-11T21:30:27.935Z,99.90
2019-04-11T21:32:58.374Z,99.90
2019-04-11T21:35:27.178Z,99.90
2019-04-11T21:37:57.938Z,99.40
2019-04-11T21:40:26.958Z,99.20
2019-04-11T21:42:55.878Z,98.70
2019-04-11T21:45:24.786Z,98.90
2019-04-11T21:47:53.707Z,98.40
2019-04-11T21:50:22.701Z,98.70
2019-04-11T21:52:51.648Z,98.50
2019-04-11T21:55:20.544Z,98.80
2019-04-11T21:57:51.113Z,98.60
2019-04-11T22:00:24.874Z,99.00
2019-04-11T22:02:54.417Z,99.10
2019-04-11T22:05:24.180Z,99.10
2019-04-11T22:07:53.309Z,99.00
2019-04-11T22:10:22.297Z,99.20
2019-04-11T22:12:51.274Z,99.70
2019-04-11T22:15:20.232Z,99.70
2019-04-11T22:17:49.302Z,99.80
2019-04-11T22:20:18.278Z,99.90
2019-04-11T22:22:47.272Z,99.90
2019-04-11T22:25:16.247Z,99.90
2019-04-11T22:27:45.649Z,99.90
2019-04-11T22:30:16.299Z,99.90
2019-04-11T22:32:46.970Z,99.90
2019-04-11T22:35:16.035Z,99.90
2019-04-11T22:37:45.034Z,99.90
2019-04-11T22:40:14.102Z,99.90
2019-04-11T22:42:43.124Z,99.90
2019-04-11T22:45:12.114Z,99.90
2019-04-11T22:47:41.182Z,99.90
2019-04-11T22:50:10.746Z,99.90
2019-04-11T22:52:42.303Z,99.90
2019-04-11T22:55:11.311Z,99.90
2019-04-11T22:57:43.479Z,99.90
2019-04-11T23:00:14.804Z,99.90
2019-04-11T23:02:58.637Z,99.90
2019-04-11T23:05:27.626Z,99.90
2019-04-11T23:07:56.754Z,99.90
2019-04-11T23:10:25.763Z,99.90
2019-04-11T23:12:54.669Z,99.90
2019-04-11T23:15:23.490Z,99.90
2019-04-11T23:17:52.401Z,99.90
2019-04-11T23:20:21.533Z,99.90
2019-04-11T23:22:50.595Z,99.90
2019-04-11T23:25:21.251Z,99.90
2019-04-11T23:27:50.300Z,99.90
2019-04-11T23:30:19.298Z,99.90
2019-04-11T23:32:50.814Z,99.90
2019-04-11T23:35:21.167Z,99.90
2019-04-11T23:37:51.048Z,99.90
2019-04-11T23:40:21.753Z,99.90
2019-04-11T23:42:50.986Z,99.90
2019-04-11T23:45:23.441Z,99.90
2019-04-11T23:47:54.089Z,99.90
2019-04-11T23:50:25.261Z,99.90
2019-04-11T23:52:56.980Z,99.90
2019-04-11T23:55:24.585Z,99.90
2019-04-11T23:57:53.548Z,99.90
